Nearby METAR Reports

This page may be slow to load as it queries the National Weather Service for data.

KBIS - Bismarck, North Dakota, USA
Distance from station: S 10mi, 15km
Updated: Sun, 18-Nov-2018 12:52am CST
Clear
Clear
 Wind from WSW
Wind: WSW 6 mph , 9 km/h
Temperature: 10°F , -12°C
Wind Chill: 0°F , -18°C
Dew Point: 7°F , -14°C
Humidity: 85%
Barometer: 30.21 inHg , 1023 hPa
Clouds: Clear
Visibility: 10 miles , 16 km
2018/11/18 06:52 KBIS 180652Z AUTO 24005KT 10SM CLR M12/M14 A3021 RMK AO2 SLP268 T11221144
KDIK - Dickinson, North Dakota, USA
Distance from station: W 95mi, 154km
Updated: Sun, 18-Nov-2018 12:56am CST
Clear
Clear
 Wind from WSW
Wind: WSW 13 mph , 20 km/h
Temperature: 16°F , -9°C
Wind Chill: 2°F , -17°C
Dew Point: 10°F , -12°C
Humidity: 79%
Barometer: 30.12 inHg , 1020 hPa
Clouds: Clear
Visibility: 10 miles , 16 km
2018/11/18 06:56 KDIK 180656Z AUTO 25011KT 10SM CLR M09/M12 A3012 RMK AO2 SLP246 T10891117 410831144
 
KISN - Williston, North Dakota, USA
Distance from station: NNW 2mi, 2km
Updated: Sun, 18-Nov-2018 1:52am CST
Clear
Clear
 Wind from SW
Wind: SW 13 mph , 20 km/h
Temperature: 16°F , -9°C
Wind Chill: 2°F , -17°C
Dew Point: 10°F , -12°C
Humidity: 79%
Barometer: 30.09 inHg , 1019 hPa
Clouds: Clear
Visibility: 10 miles , 16 km
2018/11/18 07:52 KISN 180752Z AUTO 22011KT 10SM CLR M09/M12 A3009 RMK AO2 SLP230 T10891117
KFAR - Fargo, North Dakota, USA
Distance from station: NNW 4mi, 7km
Updated: Sun, 18-Nov-2018 12:53am CST
Clear
Clear
 Wind from SW
Wind: SW 12 mph , 19 km/h
Temperature: 9°F , -13°C
Wind Chill: -6°F , -21°C
Dew Point: 3°F , -16°C
Humidity: 78%
Barometer: 30.27 inHg , 1025.1 hPa
Clouds: Clear
Visibility: 10 miles , 16 km
2018/11/18 06:53 KFAR 180653Z 22010KT 10SM CLR M13/M16 A3027 RMK AO2 SLP272 T11281156
 
KGFK - Grand Forks, North Dakota, USA
Distance from station: NNW 76mi, 123km
Updated: Sun, 18-Nov-2018 12:53am CST
Clear
Clear
 Wind from S
Wind: S 10 mph , 17 km/h
Temperature: 7°F , -14°C
Wind Chill: -7°F , -22°C
Dew Point: 3°F , -16°C
Humidity: 85%
Barometer: 30.19 inHg , 1022.4 hPa
Clouds: Clear
Visibility: 10 miles , 16 km
2018/11/18 06:53 KGFK 180653Z AUTO 19009KT 10SM CLR M14/M16 A3019 RMK AO2 SLP246 T11441161 $
KMOT - Minot, North Dakota, USA
Distance from station: E 109mi, 175km
Updated: Sun, 18-Nov-2018 12:54am CST
Clear
Clear
 Wind from SW
Wind: SW 13 mph , 20 km/h
Temperature: 18°F , -8°C
Wind Chill: 5°F , -15°C
Dew Point: 10°F , -12°C
Humidity: 73%
Barometer: 30.09 inHg , 1019 hPa
Clouds: Clear
Visibility: 10 miles , 16 km
2018/11/18 06:54 KMOT 180654Z AUTO 23011KT 10SM CLR M08/M12 A3009 RMK AO2 SLP224 T10831122